sensor_id;sensor_type;location;lat;lon;timestamp;P1;durP1;ratioP1;P2;durP2;ratioP2
36377;SDS011;22402;42.746;23.606;2022-09-27T00:01:03;13.33;;;6.30;;
36377;SDS011;22402;42.746;23.606;2022-09-27T00:03:30;14.07;;;7.90;;
36377;SDS011;22402;42.746;23.606;2022-09-27T00:06:30;14.30;;;7.03;;
36377;SDS011;22402;42.746;23.606;2022-09-27T00:08:50;12.00;;;6.10;;
36377;SDS011;22402;42.746;23.606;2022-09-27T00:11:22;18.67;;;8.10;;
36377;SDS011;22402;42.746;23.606;2022-09-27T00:13:54;14.37;;;7.20;;
36377;SDS011;22402;42.746;23.606;2022-09-27T00:16:20;12.90;;;6.83;;
36377;SDS011;22402;42.746;23.606;2022-09-27T00:18:47;20.77;;;8.87;;
36377;SDS011;22402;42.746;23.606;2022-09-27T00:21:12;11.83;;;6.57;;
36377;SDS011;22402;42.746;23.606;2022-09-27T00:23:38;11.90;;;6.20;;
36377;SDS011;22402;42.746;23.606;2022-09-27T00:26:04;14.00;;;6.30;;
36377;SDS011;22402;42.746;23.606;2022-09-27T00:28:31;15.00;;;7.23;;
36377;SDS011;22402;42.746;23.606;2022-09-27T00:30:57;19.13;;;6.60;;
36377;SDS011;22402;42.746;23.606;2022-09-27T00:33:22;11.53;;;6.37;;
36377;SDS011;22402;42.746;23.606;2022-09-27T00:35:48;15.13;;;6.60;;
36377;SDS011;22402;42.746;23.606;2022-09-27T00:38:13;11.40;;;5.83;;
36377;SDS011;22402;42.746;23.606;2022-09-27T00:40:39;14.83;;;6.77;;
36377;SDS011;22402;42.746;23.606;2022-09-27T00:43:11;17.90;;;7.27;;
36377;SDS011;22402;42.746;23.606;2022-09-27T00:45:40;12.87;;;7.20;;
36377;SDS011;22402;42.746;23.606;2022-09-27T00:48:06;12.90;;;6.93;;
36377;SDS011;22402;42.746;23.606;2022-09-27T00:50:32;13.03;;;6.53;;
36377;SDS011;22402;42.746;23.606;2022-09-27T00:55:34;15.10;;;7.43;;
36377;SDS011;22402;42.746;23.606;2022-09-27T00:58:03;23.10;;;8.30;;
36377;SDS011;22402;42.746;23.606;2022-09-27T01:00:30;18.43;;;7.53;;
36377;SDS011;22402;42.746;23.606;2022-09-27T01:02:55;15.43;;;7.13;;
36377;SDS011;22402;42.746;23.606;2022-09-27T01:05:22;13.73;;;7.13;;
36377;SDS011;22402;42.746;23.606;2022-09-27T01:07:50;22.73;;;8.53;;
36377;SDS011;22402;42.746;23.606;2022-09-27T01:10:16;13.17;;;6.00;;
36377;SDS011;22402;42.746;23.606;2022-09-27T01:12:55;20.40;;;7.27;;
36377;SDS011;22402;42.746;23.606;2022-09-27T01:18:40;19.37;;;7.20;;
36377;SDS011;22402;42.746;23.606;2022-09-27T01:21:37;22.93;;;8.10;;
36377;SDS011;22402;42.746;23.606;2022-09-27T01:24:20;21.53;;;6.87;;
36377;SDS011;22402;42.746;23.606;2022-09-27T01:33:03;17.33;;;6.73;;
36377;SDS011;22402;42.746;23.606;2022-09-27T01:35:23;13.07;;;6.03;;
36377;SDS011;22402;42.746;23.606;2022-09-27T01:37:52;16.33;;;7.03;;
36377;SDS011;22402;42.746;23.606;2022-09-27T01:40:40;18.60;;;5.70;;
36377;SDS011;22402;42.746;23.606;2022-09-27T01:43:34;14.03;;;6.90;;
36377;SDS011;22402;42.746;23.606;2022-09-27T01:46:03;15.20;;;6.57;;
36377;SDS011;22402;42.746;23.606;2022-09-27T01:48:34;20.60;;;7.00;;
36377;SDS011;22402;42.746;23.606;2022-09-27T01:51:06;26.87;;;8.20;;
36377;SDS011;22402;42.746;23.606;2022-09-27T01:53:43;15.23;;;7.77;;
36377;SDS011;22402;42.746;23.606;2022-09-27T01:56:21;15.60;;;7.67;;
36377;SDS011;22402;42.746;23.606;2022-09-27T01:58:56;14.17;;;6.90;;
36377;SDS011;22402;42.746;23.606;2022-09-27T02:01:22;14.57;;;7.30;;
36377;SDS011;22402;42.746;23.606;2022-09-27T02:03:52;21.03;;;7.93;;
36377;SDS011;22402;42.746;23.606;2022-09-27T02:06:21;17.73;;;8.10;;
36377;SDS011;22402;42.746;23.606;2022-09-27T02:09:00;12.63;;;6.80;;
36377;SDS011;22402;42.746;23.606;2022-09-27T02:11:29;21.40;;;8.07;;
36377;SDS011;22402;42.746;23.606;2022-09-27T02:16:40;10.13;;;6.60;;
36377;SDS011;22402;42.746;23.606;2022-09-27T02:22:56;13.27;;;8.00;;
36377;SDS011;22402;42.746;23.606;2022-09-27T02:25:43;16.23;;;7.77;;
36377;SDS011;22402;42.746;23.606;2022-09-27T02:30:56;13.20;;;7.40;;
36377;SDS011;22402;42.746;23.606;2022-09-27T02:36:08;15.70;;;7.70;;
36377;SDS011;22402;42.746;23.606;2022-09-27T02:38:34;16.40;;;7.43;;
36377;SDS011;22402;42.746;23.606;2022-09-27T02:41:00;20.90;;;8.90;;
36377;SDS011;22402;42.746;23.606;2022-09-27T02:43:26;16.33;;;8.80;;
36377;SDS011;22402;42.746;23.606;2022-09-27T02:56:52;8.90;;;6.33;;
36377;SDS011;22402;42.746;23.606;2022-09-27T03:00:08;11.90;;;6.53;;
36377;SDS011;22402;42.746;23.606;2022-09-27T03:02:26;12.33;;;6.60;;
36377;SDS011;22402;42.746;23.606;2022-09-27T03:05:00;9.03;;;6.17;;
36377;SDS011;22402;42.746;23.606;2022-09-27T03:07:30;10.87;;;7.23;;
36377;SDS011;22402;42.746;23.606;2022-09-27T03:09:56;9.50;;;6.17;;
36377;SDS011;22402;42.746;23.606;2022-09-27T03:12:21;9.57;;;6.97;;
36377;SDS011;22402;42.746;23.606;2022-09-27T03:14:48;12.77;;;6.53;;
36377;SDS011;22402;42.746;23.606;2022-09-27T03:17:13;8.50;;;6.30;;
36377;SDS011;22402;42.746;23.606;2022-09-27T03:19:39;11.23;;;5.50;;
36377;SDS011;22402;42.746;23.606;2022-09-27T03:22:04;13.53;;;7.10;;
36377;SDS011;22402;42.746;23.606;2022-09-27T03:24:29;13.53;;;7.00;;
36377;SDS011;22402;42.746;23.606;2022-09-27T03:26:55;22.53;;;7.50;;
36377;SDS011;22402;42.746;23.606;2022-09-27T03:29:20;8.30;;;6.10;;
36377;SDS011;22402;42.746;23.606;2022-09-27T03:31:45;10.30;;;6.43;;
36377;SDS011;22402;42.746;23.606;2022-09-27T03:34:11;11.23;;;6.80;;
36377;SDS011;22402;42.746;23.606;2022-09-27T03:36:36;11.63;;;7.23;;
36377;SDS011;22402;42.746;23.606;2022-09-27T03:39:02;9.80;;;6.30;;
36377;SDS011;22402;42.746;23.606;2022-09-27T03:41:30;9.00;;;5.93;;
36377;SDS011;22402;42.746;23.606;2022-09-27T03:43:56;11.80;;;7.03;;
36377;SDS011;22402;42.746;23.606;2022-09-27T03:46:21;11.40;;;7.30;;
36377;SDS011;22402;42.746;23.606;2022-09-27T03:48:46;11.73;;;7.03;;
36377;SDS011;22402;42.746;23.606;2022-09-27T03:51:12;14.23;;;7.57;;
36377;SDS011;22402;42.746;23.606;2022-09-27T03:53:37;15.60;;;7.67;;
36377;SDS011;22402;42.746;23.606;2022-09-27T03:56:02;9.37;;;6.70;;
36377;SDS011;22402;42.746;23.606;2022-09-27T03:58:28;14.80;;;7.97;;
36377;SDS011;22402;42.746;23.606;2022-09-27T04:00:53;10.00;;;7.13;;
36377;SDS011;22402;42.746;23.606;2022-09-27T04:03:18;13.60;;;8.30;;
36377;SDS011;22402;42.746;23.606;2022-09-27T04:05:47;13.87;;;6.20;;
36377;SDS011;22402;42.746;23.606;2022-09-27T04:08:12;15.10;;;8.20;;
36377;SDS011;22402;42.746;23.606;2022-09-27T04:10:38;12.80;;;7.83;;
36377;SDS011;22402;42.746;23.606;2022-09-27T04:13:03;13.13;;;7.80;;
36377;SDS011;22402;42.746;23.606;2022-09-27T04:15:29;12.93;;;7.27;;
36377;SDS011;22402;42.746;23.606;2022-09-27T04:17:54;13.50;;;7.80;;
36377;SDS011;22402;42.746;23.606;2022-09-27T04:20:20;13.93;;;7.77;;
36377;SDS011;22402;42.746;23.606;2022-09-27T04:22:45;19.07;;;7.37;;
36377;SDS011;22402;42.746;23.606;2022-09-27T04:25:11;15.13;;;8.37;;
36377;SDS011;22402;42.746;23.606;2022-09-27T04:27:36;13.70;;;8.30;;
36377;SDS011;22402;42.746;23.606;2022-09-27T04:30:02;12.40;;;8.67;;
36377;SDS011;22402;42.746;23.606;2022-09-27T04:32:28;12.57;;;7.90;;
36377;SDS011;22402;42.746;23.606;2022-09-27T04:34:54;12.60;;;7.83;;
36377;SDS011;22402;42.746;23.606;2022-09-27T04:37:19;14.33;;;8.27;;
36377;SDS011;22402;42.746;23.606;2022-09-27T04:39:44;16.07;;;8.63;;
36377;SDS011;22402;42.746;23.606;2022-09-27T04:42:09;16.90;;;8.60;;
36377;SDS011;22402;42.746;23.606;2022-09-27T04:44:35;14.90;;;7.63;;
36377;SDS011;22402;42.746;23.606;2022-09-27T04:47:00;11.90;;;6.87;;
36377;SDS011;22402;42.746;23.606;2022-09-27T04:49:25;13.40;;;8.00;;
36377;SDS011;22402;42.746;23.606;2022-09-27T04:51:51;10.07;;;7.27;;
36377;SDS011;22402;42.746;23.606;2022-09-27T04:54:16;11.63;;;7.50;;
36377;SDS011;22402;42.746;23.606;2022-09-27T04:56:41;11.43;;;7.10;;
36377;SDS011;22402;42.746;23.606;2022-09-27T04:59:08;16.40;;;7.60;;
36377;SDS011;22402;42.746;23.606;2022-09-27T05:01:33;12.00;;;7.67;;
36377;SDS011;22402;42.746;23.606;2022-09-27T05:03:59;9.97;;;6.80;;
36377;SDS011;22402;42.746;23.606;2022-09-27T05:06:24;11.17;;;7.23;;
36377;SDS011;22402;42.746;23.606;2022-09-27T05:08:49;13.07;;;7.57;;
36377;SDS011;22402;42.746;23.606;2022-09-27T05:11:15;13.93;;;7.57;;
36377;SDS011;22402;42.746;23.606;2022-09-27T05:13:40;11.80;;;7.30;;
36377;SDS011;22402;42.746;23.606;2022-09-27T05:16:06;14.13;;;8.17;;
36377;SDS011;22402;42.746;23.606;2022-09-27T05:18:31;11.77;;;7.23;;
36377;SDS011;22402;42.746;23.606;2022-09-27T05:20:57;16.00;;;8.87;;
36377;SDS011;22402;42.746;23.606;2022-09-27T05:23:22;12.50;;;7.63;;
36377;SDS011;22402;42.746;23.606;2022-09-27T05:25:47;20.33;;;8.90;;
36377;SDS011;22402;42.746;23.606;2022-09-27T05:28:13;12.87;;;8.00;;
36377;SDS011;22402;42.746;23.606;2022-09-27T05:30:38;17.00;;;9.67;;
36377;SDS011;22402;42.746;23.606;2022-09-27T05:33:03;23.30;;;9.10;;
36377;SDS011;22402;42.746;23.606;2022-09-27T05:35:29;18.30;;;9.80;;
36377;SDS011;22402;42.746;23.606;2022-09-27T05:37:58;13.80;;;8.13;;
36377;SDS011;22402;42.746;23.606;2022-09-27T05:40:24;12.37;;;7.47;;
36377;SDS011;22402;42.746;23.606;2022-09-27T05:42:50;16.70;;;9.37;;
36377;SDS011;22402;42.746;23.606;2022-09-27T05:45:16;19.70;;;9.63;;
36377;SDS011;22402;42.746;23.606;2022-09-27T05:47:42;22.43;;;10.23;;
36377;SDS011;22402;42.746;23.606;2022-09-27T05:50:08;25.07;;;10.20;;
36377;SDS011;22402;42.746;23.606;2022-09-27T05:52:33;18.07;;;9.67;;
36377;SDS011;22402;42.746;23.606;2022-09-27T05:54:58;16.60;;;9.67;;
36377;SDS011;22402;42.746;23.606;2022-09-27T05:57:24;19.73;;;11.03;;
36377;SDS011;22402;42.746;23.606;2022-09-27T05:59:49;26.37;;;11.10;;
36377;SDS011;22402;42.746;23.606;2022-09-27T06:02:14;20.23;;;11.10;;
36377;SDS011;22402;42.746;23.606;2022-09-27T06:04:40;17.57;;;9.77;;
36377;SDS011;22402;42.746;23.606;2022-09-27T06:07:05;22.90;;;12.77;;
36377;SDS011;22402;42.746;23.606;2022-09-27T06:09:32;14.60;;;9.10;;
36377;SDS011;22402;42.746;23.606;2022-09-27T06:11:57;21.53;;;11.53;;
36377;SDS011;22402;42.746;23.606;2022-09-27T06:14:22;19.23;;;10.20;;
36377;SDS011;22402;42.746;23.606;2022-09-27T06:16:48;17.10;;;9.90;;
36377;SDS011;22402;42.746;23.606;2022-09-27T06:19:13;21.90;;;11.63;;
36377;SDS011;22402;42.746;23.606;2022-09-27T06:21:39;20.30;;;10.40;;
36377;SDS011;22402;42.746;23.606;2022-09-27T06:24:04;19.70;;;11.20;;
36377;SDS011;22402;42.746;23.606;2022-09-27T06:26:29;19.30;;;10.27;;
36377;SDS011;22402;42.746;23.606;2022-09-27T06:28:55;17.30;;;9.83;;
36377;SDS011;22402;42.746;23.606;2022-09-27T06:31:21;17.40;;;9.90;;
36377;SDS011;22402;42.746;23.606;2022-09-27T06:33:47;21.07;;;11.17;;
36377;SDS011;22402;42.746;23.606;2022-09-27T06:36:13;23.57;;;11.20;;
36377;SDS011;22402;42.746;23.606;2022-09-27T06:38:38;21.60;;;10.17;;
36377;SDS011;22402;42.746;23.606;2022-09-27T06:41:04;20.87;;;9.63;;
36377;SDS011;22402;42.746;23.606;2022-09-27T06:43:30;18.27;;;10.30;;
36377;SDS011;22402;42.746;23.606;2022-09-27T06:46:00;17.23;;;8.77;;
36377;SDS011;22402;42.746;23.606;2022-09-27T06:48:26;22.50;;;9.93;;
36377;SDS011;22402;42.746;23.606;2022-09-27T06:50:51;22.67;;;10.47;;
36377;SDS011;22402;42.746;23.606;2022-09-27T06:53:17;18.60;;;9.80;;
36377;SDS011;22402;42.746;23.606;2022-09-27T06:55:43;18.10;;;9.30;;
36377;SDS011;22402;42.746;23.606;2022-09-27T06:58:08;19.20;;;10.00;;
36377;SDS011;22402;42.746;23.606;2022-09-27T07:00:35;16.70;;;8.93;;
36377;SDS011;22402;42.746;23.606;2022-09-27T07:03:00;16.70;;;9.27;;
36377;SDS011;22402;42.746;23.606;2022-09-27T07:05:26;21.53;;;10.10;;
36377;SDS011;22402;42.746;23.606;2022-09-27T07:07:52;19.37;;;8.83;;
36377;SDS011;22402;42.746;23.606;2022-09-27T07:10:18;29.33;;;9.37;;
36377;SDS011;22402;42.746;23.606;2022-09-27T07:12:43;18.33;;;9.73;;
36377;SDS011;22402;42.746;23.606;2022-09-27T07:15:08;14.93;;;8.77;;
36377;SDS011;22402;42.746;23.606;2022-09-27T07:17:34;17.93;;;8.43;;
36377;SDS011;22402;42.746;23.606;2022-09-27T07:19:59;15.07;;;8.17;;
36377;SDS011;22402;42.746;23.606;2022-09-27T07:22:25;15.03;;;9.00;;
36377;SDS011;22402;42.746;23.606;2022-09-27T07:24:50;18.10;;;8.93;;
36377;SDS011;22402;42.746;23.606;2022-09-27T07:27:15;18.00;;;8.00;;
36377;SDS011;22402;42.746;23.606;2022-09-27T07:29:41;15.93;;;8.60;;
36377;SDS011;22402;42.746;23.606;2022-09-27T07:32:06;18.20;;;8.90;;
36377;SDS011;22402;42.746;23.606;2022-09-27T07:34:32;22.70;;;11.63;;
36377;SDS011;22402;42.746;23.606;2022-09-27T07:36:58;19.20;;;8.47;;
36377;SDS011;22402;42.746;23.606;2022-09-27T07:39:24;24.40;;;11.73;;
36377;SDS011;22402;42.746;23.606;2022-09-27T07:41:50;27.37;;;11.80;;
36377;SDS011;22402;42.746;23.606;2022-09-27T07:44:15;17.30;;;9.57;;
36377;SDS011;22402;42.746;23.606;2022-09-27T07:46:41;20.10;;;9.70;;
36377;SDS011;22402;42.746;23.606;2022-09-27T07:49:06;15.60;;;8.57;;
36377;SDS011;22402;42.746;23.606;2022-09-27T07:51:31;21.93;;;9.70;;
36377;SDS011;22402;42.746;23.606;2022-09-27T07:53:57;20.30;;;9.00;;
36377;SDS011;22402;42.746;23.606;2022-09-27T07:56:23;22.20;;;8.73;;
36377;SDS011;22402;42.746;23.606;2022-09-27T07:58:48;20.20;;;10.57;;
36377;SDS011;22402;42.746;23.606;2022-09-27T08:01:13;19.73;;;10.30;;
36377;SDS011;22402;42.746;23.606;2022-09-27T08:03:39;25.20;;;10.50;;
36377;SDS011;22402;42.746;23.606;2022-09-27T08:06:04;17.30;;;9.90;;
36377;SDS011;22402;42.746;23.606;2022-09-27T08:08:30;14.70;;;9.13;;
36377;SDS011;22402;42.746;23.606;2022-09-27T08:10:55;17.10;;;9.40;;
36377;SDS011;22402;42.746;23.606;2022-09-27T08:13:20;15.90;;;9.37;;
36377;SDS011;22402;42.746;23.606;2022-09-27T08:15:46;18.10;;;9.53;;
36377;SDS011;22402;42.746;23.606;2022-09-27T08:18:11;17.50;;;9.43;;
36377;SDS011;22402;42.746;23.606;2022-09-27T08:20:37;19.00;;;9.33;;
36377;SDS011;22402;42.746;23.606;2022-09-27T08:23:02;18.50;;;10.20;;
36377;SDS011;22402;42.746;23.606;2022-09-27T08:25:28;41.27;;;12.43;;
36377;SDS011;22402;42.746;23.606;2022-09-27T08:27:54;22.07;;;11.13;;
36377;SDS011;22402;42.746;23.606;2022-09-27T08:30:23;18.03;;;9.40;;
36377;SDS011;22402;42.746;23.606;2022-09-27T08:32:49;18.57;;;10.47;;
36377;SDS011;22402;42.746;23.606;2022-09-27T08:35:19;27.00;;;9.60;;
36377;SDS011;22402;42.746;23.606;2022-09-27T09:10:02;12.90;;;8.30;;
36377;SDS011;22402;42.746;23.606;2022-09-27T09:12:56;9.70;;;7.73;;
36377;SDS011;22402;42.746;23.606;2022-09-27T09:18:18;10.47;;;8.33;;
36377;SDS011;22402;42.746;23.606;2022-09-27T09:24:25;11.90;;;8.10;;
36377;SDS011;22402;42.746;23.606;2022-09-27T09:27:08;9.97;;;8.30;;
36377;SDS011;22402;42.746;23.606;2022-09-27T09:33:03;10.73;;;8.33;;
36377;SDS011;22402;42.746;23.606;2022-09-27T09:35:53;11.83;;;9.43;;
36377;SDS011;22402;42.746;23.606;2022-09-27T09:38:37;12.40;;;8.80;;
36377;SDS011;22402;42.746;23.606;2022-09-27T09:41:19;11.33;;;8.13;;
36377;SDS011;22402;42.746;23.606;2022-09-27T09:43:47;11.27;;;8.43;;
36377;SDS011;22402;42.746;23.606;2022-09-27T09:48:45;10.17;;;7.47;;
36377;SDS011;22402;42.746;23.606;2022-09-27T09:51:17;10.47;;;8.20;;
36377;SDS011;22402;42.746;23.606;2022-09-27T09:53:56;10.70;;;8.20;;
36377;SDS011;22402;42.746;23.606;2022-09-27T09:56:35;13.40;;;7.23;;
36377;SDS011;22402;42.746;23.606;2022-09-27T10:02:14;17.07;;;10.83;;
36377;SDS011;22402;42.746;23.606;2022-09-27T10:04:49;13.97;;;8.57;;
36377;SDS011;22402;42.746;23.606;2022-09-27T10:07:15;18.97;;;8.80;;
36377;SDS011;22402;42.746;23.606;2022-09-27T10:09:44;10.23;;;7.13;;
36377;SDS011;22402;42.746;23.606;2022-09-27T10:12:09;11.93;;;7.43;;
36377;SDS011;22402;42.746;23.606;2022-09-27T10:14:35;15.30;;;8.73;;
36377;SDS011;22402;42.746;23.606;2022-09-27T10:17:02;11.00;;;6.70;;
36377;SDS011;22402;42.746;23.606;2022-09-27T10:19:33;18.70;;;8.77;;
36377;SDS011;22402;42.746;23.606;2022-09-27T10:22:01;12.37;;;7.77;;
36377;SDS011;22402;42.746;23.606;2022-09-27T10:25:11;14.70;;;8.53;;
36377;SDS011;22402;42.746;23.606;2022-09-27T10:27:38;21.57;;;10.10;;
36377;SDS011;22402;42.746;23.606;2022-09-27T10:30:19;18.53;;;8.30;;
36377;SDS011;22402;42.746;23.606;2022-09-27T10:32:54;24.87;;;6.57;;
36377;SDS011;22402;42.746;23.606;2022-09-27T10:40:50;11.57;;;7.50;;
36377;SDS011;22402;42.746;23.606;2022-09-27T10:49:06;8.37;;;6.23;;
36377;SDS011;22402;42.746;23.606;2022-09-27T10:51:42;19.23;;;8.27;;
36377;SDS011;22402;42.746;23.606;2022-09-27T10:54:51;10.87;;;7.53;;
36377;SDS011;22402;42.746;23.606;2022-09-27T10:59:39;11.23;;;6.60;;
36377;SDS011;22402;42.746;23.606;2022-09-27T11:02:27;16.70;;;9.37;;
36377;SDS011;22402;42.746;23.606;2022-09-27T11:07:31;15.90;;;10.17;;
36377;SDS011;22402;42.746;23.606;2022-09-27T11:09:57;21.03;;;9.97;;
36377;SDS011;22402;42.746;23.606;2022-09-27T11:12:23;16.43;;;9.90;;
36377;SDS011;22402;42.746;23.606;2022-09-27T11:14:53;11.20;;;7.57;;
36377;SDS011;22402;42.746;23.606;2022-09-27T11:17:32;12.87;;;8.67;;
36377;SDS011;22402;42.746;23.606;2022-09-27T11:20:16;15.53;;;8.27;;
36377;SDS011;22402;42.746;23.606;2022-09-27T11:23:24;9.33;;;6.60;;
36377;SDS011;22402;42.746;23.606;2022-09-27T11:28:34;12.33;;;8.10;;
36377;SDS011;22402;42.746;23.606;2022-09-27T11:33:44;12.00;;;6.23;;
36377;SDS011;22402;42.746;23.606;2022-09-27T11:38:54;9.03;;;6.60;;
36377;SDS011;22402;42.746;23.606;2022-09-27T11:44:29;10.30;;;6.33;;
36377;SDS011;22402;42.746;23.606;2022-09-27T11:58:40;7.70;;;4.60;;
36377;SDS011;22402;42.746;23.606;2022-09-27T12:09:19;5.20;;;4.33;;
36377;SDS011;22402;42.746;23.606;2022-09-27T12:11:50;5.70;;;4.90;;
36377;SDS011;22402;42.746;23.606;2022-09-27T12:14:22;9.80;;;5.50;;
36377;SDS011;22402;42.746;23.606;2022-09-27T12:16:53;7.00;;;4.90;;
36377;SDS011;22402;42.746;23.606;2022-09-27T12:19:22;5.80;;;4.23;;
36377;SDS011;22402;42.746;23.606;2022-09-27T12:21:55;5.03;;;4.50;;
36377;SDS011;22402;42.746;23.606;2022-09-27T12:24:22;11.27;;;4.17;;
36377;SDS011;22402;42.746;23.606;2022-09-27T12:26:49;4.57;;;3.80;;
36377;SDS011;22402;42.746;23.606;2022-09-27T12:31:55;9.00;;;4.77;;
36377;SDS011;22402;42.746;23.606;2022-09-27T12:34:34;5.40;;;4.30;;
36377;SDS011;22402;42.746;23.606;2022-09-27T12:37:07;5.40;;;4.30;;
36377;SDS011;22402;42.746;23.606;2022-09-27T12:42:14;4.30;;;3.90;;
36377;SDS011;22402;42.746;23.606;2022-09-27T12:44:43;5.10;;;4.37;;
36377;SDS011;22402;42.746;23.606;2022-09-27T12:50:14;5.60;;;3.80;;
36377;SDS011;22402;42.746;23.606;2022-09-27T12:53:13;5.10;;;4.33;;
36377;SDS011;22402;42.746;23.606;2022-09-27T13:12:51;5.40;;;4.40;;
36377;SDS011;22402;42.746;23.606;2022-09-27T13:15:21;11.17;;;4.03;;
36377;SDS011;22402;42.746;23.606;2022-09-27T13:17:52;9.63;;;4.80;;
36377;SDS011;22402;42.746;23.606;2022-09-27T13:30:55;5.03;;;4.43;;
36377;SDS011;22402;42.746;23.606;2022-09-27T13:41:22;3.70;;;3.40;;
36377;SDS011;22402;42.746;23.606;2022-09-27T13:43:50;2.63;;;2.40;;
36377;SDS011;22402;42.746;23.606;2022-09-27T13:46:19;5.20;;;2.57;;
36377;SDS011;22402;42.746;23.606;2022-09-27T13:48:56;3.57;;;3.23;;
36377;SDS011;22402;42.746;23.606;2022-09-27T13:51:29;4.87;;;2.60;;
36377;SDS011;22402;42.746;23.606;2022-09-27T13:54:01;5.00;;;3.00;;
36377;SDS011;22402;42.746;23.606;2022-09-27T13:59:02;3.57;;;2.47;;
36377;SDS011;22402;42.746;23.606;2022-09-27T14:01:33;4.10;;;2.90;;
36377;SDS011;22402;42.746;23.606;2022-09-27T14:06:35;4.93;;;3.00;;
36377;SDS011;22402;42.746;23.606;2022-09-27T14:09:07;4.73;;;3.60;;
36377;SDS011;22402;42.746;23.606;2022-09-27T14:11:44;3.80;;;3.40;;
36377;SDS011;22402;42.746;23.606;2022-09-27T14:14:16;5.40;;;3.00;;
36377;SDS011;22402;42.746;23.606;2022-09-27T14:16:46;4.37;;;2.70;;
36377;SDS011;22402;42.746;23.606;2022-09-27T14:19:16;25.30;;;8.17;;
36377;SDS011;22402;42.746;23.606;2022-09-27T14:21:55;6.70;;;3.87;;
36377;SDS011;22402;42.746;23.606;2022-09-27T14:29:50;5.50;;;3.83;;
36377;SDS011;22402;42.746;23.606;2022-09-27T14:32:19;3.63;;;2.97;;
36377;SDS011;22402;42.746;23.606;2022-09-27T14:34:46;4.13;;;2.87;;
36377;SDS011;22402;42.746;23.606;2022-09-27T14:37:29;8.00;;;3.67;;
36377;SDS011;22402;42.746;23.606;2022-09-27T14:39:56;6.20;;;3.43;;
36377;SDS011;22402;42.746;23.606;2022-09-27T14:42:24;5.57;;;4.00;;
36377;SDS011;22402;42.746;23.606;2022-09-27T14:44:51;4.80;;;3.23;;
36377;SDS011;22402;42.746;23.606;2022-09-27T14:47:20;8.00;;;2.90;;
36377;SDS011;22402;42.746;23.606;2022-09-27T14:49:59;4.90;;;2.97;;
36377;SDS011;22402;42.746;23.606;2022-09-27T14:52:37;6.07;;;2.90;;
36377;SDS011;22402;42.746;23.606;2022-09-27T14:57:33;2.67;;;2.47;;
36377;SDS011;22402;42.746;23.606;2022-09-27T15:00:14;7.90;;;2.93;;
36377;SDS011;22402;42.746;23.606;2022-09-27T15:02:42;4.23;;;2.37;;
36377;SDS011;22402;42.746;23.606;2022-09-27T15:05:15;7.77;;;3.30;;
36377;SDS011;22402;42.746;23.606;2022-09-27T15:07:45;7.97;;;3.17;;
36377;SDS011;22402;42.746;23.606;2022-09-27T15:10:13;2.53;;;2.33;;
36377;SDS011;22402;42.746;23.606;2022-09-27T15:12:48;6.43;;;2.70;;
36377;SDS011;22402;42.746;23.606;2022-09-27T15:15:20;3.87;;;2.70;;
36377;SDS011;22402;42.746;23.606;2022-09-27T15:17:47;3.93;;;3.53;;
36377;SDS011;22402;42.746;23.606;2022-09-27T15:20:23;6.07;;;4.07;;
36377;SDS011;22402;42.746;23.606;2022-09-27T15:22:50;6.93;;;4.20;;
36377;SDS011;22402;42.746;23.606;2022-09-27T15:25:20;6.50;;;2.90;;
36377;SDS011;22402;42.746;23.606;2022-09-27T15:27:54;11.00;;;2.60;;
36377;SDS011;22402;42.746;23.606;2022-09-27T15:30:24;2.80;;;2.60;;
36377;SDS011;22402;42.746;23.606;2022-09-27T15:32:52;5.00;;;3.10;;
36377;SDS011;22402;42.746;23.606;2022-09-27T15:35:21;11.50;;;2.70;;
36377;SDS011;22402;42.746;23.606;2022-09-27T15:37:49;7.87;;;3.80;;
36377;SDS011;22402;42.746;23.606;2022-09-27T15:45:49;26.73;;;4.67;;
36377;SDS011;22402;42.746;23.606;2022-09-27T15:48:17;16.60;;;4.87;;
36377;SDS011;22402;42.746;23.606;2022-09-27T15:50:44;9.90;;;4.90;;
36377;SDS011;22402;42.746;23.606;2022-09-27T15:53:10;10.20;;;3.63;;
36377;SDS011;22402;42.746;23.606;2022-09-27T15:55:42;15.50;;;5.00;;
36377;SDS011;22402;42.746;23.606;2022-09-27T15:58:12;16.93;;;4.50;;
36377;SDS011;22402;42.746;23.606;2022-09-27T16:00:49;7.87;;;3.97;;
36377;SDS011;22402;42.746;23.606;2022-09-27T16:03:19;7.33;;;3.53;;
36377;SDS011;22402;42.746;23.606;2022-09-27T16:05:44;14.10;;;3.50;;
36377;SDS011;22402;42.746;23.606;2022-09-27T16:08:10;9.00;;;4.50;;
36377;SDS011;22402;42.746;23.606;2022-09-27T16:10:36;8.97;;;4.40;;
36377;SDS011;22402;42.746;23.606;2022-09-27T16:13:03;8.90;;;4.47;;
36377;SDS011;22402;42.746;23.606;2022-09-27T16:15:29;6.57;;;3.70;;
36377;SDS011;22402;42.746;23.606;2022-09-27T16:17:54;4.80;;;3.43;;
36377;SDS011;22402;42.746;23.606;2022-09-27T16:20:21;7.73;;;3.70;;
36377;SDS011;22402;42.746;23.606;2022-09-27T16:22:48;13.13;;;4.37;;
36377;SDS011;22402;42.746;23.606;2022-09-27T16:25:13;10.60;;;5.30;;
36377;SDS011;22402;42.746;23.606;2022-09-27T16:27:39;5.40;;;4.07;;
36377;SDS011;22402;42.746;23.606;2022-09-27T16:30:04;6.60;;;3.80;;
36377;SDS011;22402;42.746;23.606;2022-09-27T16:32:30;7.50;;;5.67;;
36377;SDS011;22402;42.746;23.606;2022-09-27T16:34:55;14.43;;;5.63;;
36377;SDS011;22402;42.746;23.606;2022-09-27T16:37:21;15.00;;;4.33;;
36377;SDS011;22402;42.746;23.606;2022-09-27T16:39:46;10.00;;;4.80;;
36377;SDS011;22402;42.746;23.606;2022-09-27T16:42:13;8.50;;;5.07;;
36377;SDS011;22402;42.746;23.606;2022-09-27T16:44:38;11.90;;;4.20;;
36377;SDS011;22402;42.746;23.606;2022-09-27T16:47:03;5.43;;;4.00;;
36377;SDS011;22402;42.746;23.606;2022-09-27T16:49:29;10.07;;;4.00;;
36377;SDS011;22402;42.746;23.606;2022-09-27T16:51:54;5.33;;;4.13;;
36377;SDS011;22402;42.746;23.606;2022-09-27T16:54:20;7.73;;;3.47;;
36377;SDS011;22402;42.746;23.606;2022-09-27T16:56:46;7.97;;;4.80;;
36377;SDS011;22402;42.746;23.606;2022-09-27T16:59:14;10.13;;;4.10;;
36377;SDS011;22402;42.746;23.606;2022-09-27T17:01:39;8.00;;;4.10;;
36377;SDS011;22402;42.746;23.606;2022-09-27T17:04:05;6.40;;;3.33;;
36377;SDS011;22402;42.746;23.606;2022-09-27T17:06:30;4.40;;;3.80;;
36377;SDS011;22402;42.746;23.606;2022-09-27T17:08:55;6.93;;;3.40;;
36377;SDS011;22402;42.746;23.606;2022-09-27T17:11:21;4.57;;;3.80;;
36377;SDS011;22402;42.746;23.606;2022-09-27T17:13:47;5.67;;;3.00;;
36377;SDS011;22402;42.746;23.606;2022-09-27T17:16:12;5.90;;;3.60;;
36377;SDS011;22402;42.746;23.606;2022-09-27T17:18:38;5.50;;;3.57;;
36377;SDS011;22402;42.746;23.606;2022-09-27T17:21:04;3.90;;;2.80;;
36377;SDS011;22402;42.746;23.606;2022-09-27T17:23:32;11.60;;;2.80;;
36377;SDS011;22402;42.746;23.606;2022-09-27T17:26:06;5.43;;;3.50;;
36377;SDS011;22402;42.746;23.606;2022-09-27T17:28:33;4.10;;;3.00;;
36377;SDS011;22402;42.746;23.606;2022-09-27T17:31:03;4.67;;;3.83;;
36377;SDS011;22402;42.746;23.606;2022-09-27T17:33:31;6.27;;;3.30;;
36377;SDS011;22402;42.746;23.606;2022-09-27T17:35:56;4.43;;;3.10;;
36377;SDS011;22402;42.746;23.606;2022-09-27T17:38:23;5.50;;;3.17;;
36377;SDS011;22402;42.746;23.606;2022-09-27T17:40:48;3.10;;;2.80;;
36377;SDS011;22402;42.746;23.606;2022-09-27T17:43:13;3.00;;;2.47;;
36377;SDS011;22402;42.746;23.606;2022-09-27T17:45:39;4.77;;;2.87;;